createdAt,value
2018-08-07T00:00:34.927Z,1009.9
2018-08-07T00:01:15.659Z,1009.9
2018-08-07T00:01:56.369Z,1009.87
2018-08-07T00:02:37.105Z,1009.88
2018-08-07T00:03:17.946Z,1009.88
2018-08-07T00:03:58.753Z,1009.86
2018-08-07T00:04:39.608Z,1009.87
2018-08-07T00:05:20.363Z,1009.86
2018-08-07T00:06:01.107Z,1009.84
2018-08-07T00:06:41.969Z,1009.84
2018-08-07T00:07:22.669Z,1009.83
2018-08-07T00:08:03.387Z,1009.81
2018-08-07T00:08:44.109Z,1009.81
2018-08-07T00:09:24.871Z,1009.78
2018-08-07T00:10:05.673Z,1009.75
2018-08-07T00:10:46.469Z,1009.76
2018-08-07T00:11:27.350Z,1009.77
2018-08-07T00:12:08.088Z,1009.77
2018-08-07T00:12:48.836Z,1009.76
2018-08-07T00:13:29.586Z,1009.74
2018-08-07T00:14:10.436Z,1009.79
2018-08-07T00:14:51.204Z,1009.74
2018-08-07T00:15:31.925Z,1009.76
2018-08-07T00:16:12.695Z,1009.79
2018-08-07T00:16:53.571Z,1009.78
2018-08-07T00:17:34.414Z,1009.8
2018-08-07T00:18:15.152Z,1009.77
2018-08-07T00:18:55.872Z,1009.8
2018-08-07T00:19:36.690Z,1009.8
2018-08-07T00:20:17.448Z,1009.79
2018-08-07T00:20:58.232Z,1009.77
2018-08-07T00:21:38.975Z,1009.78
2018-08-07T00:22:19.734Z,1009.77
2018-08-07T00:23:00.585Z,1009.81
2018-08-07T00:23:41.299Z,1009.78
2018-08-07T00:24:22.033Z,1009.75
2018-08-07T00:25:02.840Z,1009.74
2018-08-07T00:25:43.639Z,1009.74
2018-08-07T00:26:24.445Z,1009.72
2018-08-07T00:27:05.186Z,1009.71
2018-08-07T00:27:45.903Z,1009.72
2018-08-07T00:28:26.655Z,1009.71
2018-08-07T00:29:07.433Z,1009.72
2018-08-07T00:29:48.282Z,1009.7
2018-08-07T00:30:29.103Z,1009.67
2018-08-07T00:31:09.937Z,1009.68
2018-08-07T00:31:50.694Z,1009.69
2018-08-07T00:32:31.481Z,1009.68
2018-08-07T00:33:12.267Z,1009.7
2018-08-07T00:33:53.001Z,1009.74
2018-08-07T00:34:33.759Z,1009.71
2018-08-07T00:35:14.473Z,1009.69
2018-08-07T00:35:55.269Z,1009.68
2018-08-07T00:36:36.038Z,1009.68
2018-08-07T00:37:16.779Z,1009.61
2018-08-07T00:37:57.667Z,1009.63
2018-08-07T00:38:38.392Z,1009.61
2018-08-07T00:39:19.218Z,1009.6
2018-08-07T00:40:00.010Z,1009.62
2018-08-07T00:40:40.780Z,1009.58
2018-08-07T00:41:21.602Z,1009.62
2018-08-07T00:42:02.431Z,1009.59
2018-08-07T00:42:43.152Z,1009.64
2018-08-07T00:43:23.875Z,1009.59
2018-08-07T00:44:04.624Z,1009.66
2018-08-07T00:44:45.425Z,1009.65
2018-08-07T00:45:26.256Z,1009.63
2018-08-07T00:46:07.093Z,1009.62
2018-08-07T00:46:47.870Z,1009.69
2018-08-07T00:47:28.583Z,1009.61
2018-08-07T00:48:09.363Z,1009.61
2018-08-07T00:48:50.144Z,1009.59
2018-08-07T00:49:30.996Z,1009.58
2018-08-07T00:50:11.733Z,1009.63
2018-08-07T00:50:52.488Z,1009.56
2018-08-07T00:51:33.345Z,1009.58
2018-08-07T00:52:14.128Z,1009.59
2018-08-07T00:52:54.932Z,1009.57
2018-08-07T00:53:35.632Z,1009.56
2018-08-07T00:54:16.437Z,1009.6
2018-08-07T00:54:57.217Z,1009.57
2018-08-07T00:55:37.978Z,1009.53
2018-08-07T00:56:18.721Z,1009.57
2018-08-07T00:56:59.512Z,1009.57
2018-08-07T00:57:40.306Z,1009.53
2018-08-07T00:58:21.096Z,1009.55
2018-08-07T00:59:01.857Z,1009.56
2018-08-07T00:59:42.708Z,1009.54
2018-08-07T01:00:23.564Z,1009.56
2018-08-07T01:01:04.360Z,1009.55
2018-08-07T01:01:45.124Z,1009.52
2018-08-07T01:02:25.882Z,1009.53
2018-08-07T01:03:06.635Z,1009.51
2018-08-07T01:03:47.414Z,1009.52
2018-08-07T01:04:28.235Z,1009.49
2018-08-07T01:05:09.029Z,1009.51
2018-08-07T01:05:49.821Z,1009.48
2018-08-07T01:06:30.530Z,1009.48
2018-08-07T01:07:11.325Z,1009.48
2018-08-07T01:07:52.158Z,1009.47
2018-08-07T01:08:32.929Z,1009.47
2018-08-07T01:09:13.650Z,1009.47
2018-08-07T01:09:54.360Z,1009.46
2018-08-07T01:10:35.162Z,1009.46
2018-08-07T01:11:15.988Z,1009.45
2018-08-07T01:11:56.767Z,1009.47
2018-08-07T01:12:37.559Z,1009.42
2018-08-07T01:13:18.273Z,1009.4
2018-08-07T01:13:58.952Z,1009.37
2018-08-07T01:14:39.694Z,1009.39
2018-08-07T01:15:20.559Z,1009.38
2018-08-07T01:16:01.297Z,1009.36
2018-08-07T01:16:42.040Z,1009.39
2018-08-07T01:17:22.867Z,1009.32
2018-08-07T01:18:03.663Z,1009.38
2018-08-07T01:18:44.484Z,1009.39
2018-08-07T01:19:25.215Z,1009.37
2018-08-07T01:20:05.940Z,1009.34
2018-08-07T01:20:49.288Z,1009.36
2018-08-07T01:21:30.061Z,1009.35
2018-08-07T01:22:10.882Z,1009.34
2018-08-07T01:22:51.656Z,1009.32
2018-08-07T01:23:32.474Z,1009.3
2018-08-07T01:24:13.196Z,1009.3
2018-08-07T01:24:54.026Z,1009.33
2018-08-07T01:25:37.629Z,1009.35
2018-08-07T01:26:18.354Z,1009.33
2018-08-07T01:26:59.221Z,1009.35
2018-08-07T01:27:39.890Z,1009.34
2018-08-07T01:28:20.676Z,1009.33
2018-08-07T01:29:01.472Z,1009.36
2018-08-07T01:29:42.244Z,1009.37
2018-08-07T01:30:23.048Z,1009.39
2018-08-07T01:31:03.883Z,1009.4
2018-08-07T01:31:44.696Z,1009.4
2018-08-07T01:32:25.441Z,1009.42
2018-08-07T01:33:06.166Z,1009.4
2018-08-07T01:33:46.971Z,1009.37
2018-08-07T01:34:27.719Z,1009.35
2018-08-07T01:35:08.440Z,1009.35
2018-08-07T01:35:49.165Z,1009.31
2018-08-07T01:36:29.933Z,1009.24
2018-08-07T01:37:10.755Z,1009.21
2018-08-07T01:37:51.577Z,1009.23
2018-08-07T01:38:32.409Z,1009.17
2018-08-07T01:39:13.160Z,1009.18
2018-08-07T01:39:53.883Z,1009.18
2018-08-07T01:40:34.623Z,1009.16
2018-08-07T01:41:15.402Z,1009.16
2018-08-07T01:41:56.242Z,1009.16
2018-08-07T01:42:36.963Z,1009.14
2018-08-07T01:43:17.715Z,1009.13
2018-08-07T01:43:58.531Z,1009.1
2018-08-07T01:44:39.288Z,1009.15
2018-08-07T01:45:20.058Z,1009.16
2018-08-07T01:46:00.800Z,1009.16
2018-08-07T01:46:41.538Z,1009.13
2018-08-07T01:47:22.305Z,1009.13
2018-08-07T01:48:03.077Z,1009.15
2018-08-07T01:48:43.888Z,1009.15
2018-08-07T01:49:24.650Z,1009.14
2018-08-07T01:50:05.383Z,1009.14
2018-08-07T01:50:46.160Z,1009.12
2018-08-07T01:51:26.965Z,1009.1
2018-08-07T01:52:07.661Z,1009.14
2018-08-07T01:52:48.391Z,1009.15
2018-08-07T01:53:29.152Z,1009.13
2018-08-07T01:54:09.991Z,1009.15
2018-08-07T01:54:50.709Z,1009.14
2018-08-07T01:55:31.546Z,1009.14
2018-08-07T01:56:14.291Z,1009.12
2018-08-07T01:56:55.035Z,1009.11
2018-08-07T01:57:35.762Z,1009.12
2018-08-07T01:58:16.549Z,1009.09
2018-08-07T01:58:57.393Z,1009.09
2018-08-07T01:59:38.112Z,1009.1
2018-08-07T02:00:18.823Z,1009.08
2018-08-07T02:00:59.658Z,1009.07
2018-08-07T02:01:40.491Z,1009.05
2018-08-07T02:02:21.287Z,1009.07
2018-08-07T02:03:01.989Z,1009.09
2018-08-07T02:03:42.761Z,1009.07
2018-08-07T02:04:23.656Z,1009.05
2018-08-07T02:05:04.428Z,1009.04
2018-08-07T02:05:45.144Z,1009.03
2018-08-07T02:06:25.908Z,1009.05
2018-08-07T02:07:06.695Z,1009.08
2018-08-07T02:07:47.467Z,1009.03
2018-08-07T02:08:28.194Z,1009.05
2018-08-07T02:09:08.985Z,1009.1
2018-08-07T02:09:49.803Z,1009.04
2018-08-07T02:10:30.639Z,1009.09
2018-08-07T02:11:11.381Z,1009.07
2018-08-07T02:11:52.120Z,1009.07
2018-08-07T02:12:32.837Z,1009.06
2018-08-07T02:13:13.577Z,1009.09
2018-08-07T02:13:54.392Z,1009.08
2018-08-07T02:14:35.222Z,1009.11
2018-08-07T02:15:16.075Z,1009.1
2018-08-07T02:15:56.799Z,1009.13
2018-08-07T02:16:37.557Z,1009.13
2018-08-07T02:17:18.364Z,1009.14
2018-08-07T02:17:59.154Z,1009.11
2018-08-07T02:18:39.913Z,1009.14
2018-08-07T02:19:20.641Z,1009.11
2018-08-07T02:20:01.398Z,1009.11
2018-08-07T02:20:42.239Z,1009.12
2018-08-07T02:21:23.092Z,1009.09
2018-08-07T02:22:03.861Z,1009.1
2018-08-07T02:22:44.581Z,1009.1
2018-08-07T02:23:25.312Z,1009.13
2018-08-07T02:24:05.995Z,1009.1
2018-08-07T02:24:46.839Z,1009.14
2018-08-07T02:25:27.580Z,1009.12
2018-08-07T02:26:08.355Z,1009.09
2018-08-07T02:26:49.183Z,1009.1
2018-08-07T02:27:29.986Z,1009.06
2018-08-07T02:28:10.858Z,1009.09
2018-08-07T02:28:51.619Z,1009.05
2018-08-07T02:29:32.345Z,1009.08
2018-08-07T02:30:13.078Z,1009
2018-08-07T02:30:53.942Z,1009
2018-08-07T02:31:34.749Z,1009.01
2018-08-07T02:32:15.573Z,1008.96
2018-08-07T02:32:56.323Z,1008.96
2018-08-07T02:33:37.051Z,1008.96
2018-08-07T02:34:17.891Z,1008.92
2018-08-07T02:34:58.699Z,1008.93
2018-08-07T02:35:39.467Z,1008.92
2018-08-07T02:36:20.269Z,1008.86
2018-08-07T02:37:01.034Z,1008.89
2018-08-07T02:37:41.837Z,1008.91
2018-08-07T02:38:22.647Z,1008.89
2018-08-07T02:39:03.412Z,1008.93
2018-08-07T02:39:44.198Z,1008.92
2018-08-07T02:40:25.022Z,1008.92
2018-08-07T02:41:05.838Z,1008.92
2018-08-07T02:41:46.632Z,1008.91
2018-08-07T02:42:27.383Z,1008.93
2018-08-07T02:43:08.228Z,1008.93
2018-08-07T02:43:49.022Z,1008.94
2018-08-07T02:44:29.740Z,1008.98
2018-08-07T02:45:10.454Z,1008.94
2018-08-07T02:45:51.170Z,1008.94
2018-08-07T02:46:32.005Z,1008.9
2018-08-07T02:47:12.832Z,1008.93
2018-08-07T02:47:53.666Z,1008.9
2018-08-07T02:48:34.432Z,1008.86
2018-08-07T02:49:15.233Z,1008.88
2018-08-07T02:49:56.042Z,1008.87
2018-08-07T02:50:36.860Z,1008.84
2018-08-07T02:51:17.665Z,1008.86
2018-08-07T02:51:58.377Z,1008.81
2018-08-07T02:52:39.135Z,1008.86
2018-08-07T02:53:19.967Z,1008.85
2018-08-07T02:54:00.789Z,1008.87
2018-08-07T02:54:41.596Z,1008.89
2018-08-07T02:55:22.343Z,1008.84
2018-08-07T02:56:05.040Z,1008.9
2018-08-07T02:56:45.867Z,1008.87
2018-08-07T02:57:26.606Z,1008.89
2018-08-07T02:58:07.325Z,1008.93
2018-08-07T02:58:48.076Z,1008.9
2018-08-07T02:59:28.913Z,1008.93
2018-08-07T03:00:09.712Z,1008.89
2018-08-07T03:00:50.509Z,1008.88
2018-08-07T03:01:31.307Z,1008.87
2018-08-07T03:02:12.094Z,1008.86
2018-08-07T03:02:52.911Z,1008.82
2018-08-07T03:03:33.734Z,1008.84
2018-08-07T03:04:14.470Z,1008.87
2018-08-07T03:04:55.203Z,1008.83
2018-08-07T03:05:35.975Z,1008.82
2018-08-07T03:06:16.755Z,1008.85
2018-08-07T03:06:57.606Z,1008.84
2018-08-07T03:07:38.378Z,1008.86
2018-08-07T03:08:19.100Z,1008.86
2018-08-07T03:08:59.992Z,1008.9
2018-08-07T03:09:40.758Z,1008.86
2018-08-07T03:10:21.513Z,1008.88
2018-08-07T03:11:02.200Z,1008.86
2018-08-07T03:11:43.005Z,1008.86
2018-08-07T03:12:23.791Z,1008.88
2018-08-07T03:13:04.602Z,1008.87
2018-08-07T03:13:45.337Z,1008.86
2018-08-07T03:14:26.154Z,1008.88
2018-08-07T03:15:06.996Z,1008.89
2018-08-07T03:15:47.730Z,1008.86
2018-08-07T03:16:28.535Z,1008.88
2018-08-07T03:17:09.281Z,1008.89
2018-08-07T03:17:50.099Z,1008.86
2018-08-07T03:18:30.868Z,1008.87
2018-08-07T03:19:11.607Z,1008.86
2018-08-07T03:19:52.324Z,1008.86
2018-08-07T03:20:33.064Z,1008.88
2018-08-07T03:21:13.936Z,1008.86
2018-08-07T03:21:54.780Z,1008.88
2018-08-07T03:22:37.563Z,1008.85
2018-08-07T03:23:18.348Z,1008.87
2018-08-07T03:23:59.141Z,1008.85
2018-08-07T03:24:39.900Z,1008.87
2018-08-07T03:25:20.707Z,1008.87
2018-08-07T03:26:01.515Z,1008.85
2018-08-07T03:26:42.268Z,1008.87
2018-08-07T03:27:23.036Z,1008.87
2018-08-07T03:28:03.826Z,1008.86
2018-08-07T03:28:44.727Z,1008.86
2018-08-07T03:29:25.503Z,1008.85
2018-08-07T03:30:06.252Z,1008.84
2018-08-07T03:30:46.963Z,1008.86
2018-08-07T03:31:27.705Z,1008.83
2018-08-07T03:32:08.550Z,1008.85
2018-08-07T03:32:49.369Z,1008.81
2018-08-07T03:33:30.126Z,1008.83
2018-08-07T03:34:10.926Z,1008.8
2018-08-07T03:34:51.702Z,1008.77
2018-08-07T03:35:32.550Z,1008.76
2018-08-07T03:36:15.037Z,1008.75
2018-08-07T03:36:55.779Z,1008.77
2018-08-07T03:37:36.513Z,1008.8
2018-08-07T03:38:17.290Z,1008.82
2018-08-07T03:38:58.064Z,1008.79
2018-08-07T03:39:38.923Z,1008.78
2018-08-07T03:40:19.741Z,1008.79
2018-08-07T03:41:00.555Z,1008.79
2018-08-07T03:41:41.288Z,1008.81
2018-08-07T03:42:22.016Z,1008.82
2018-08-07T03:43:02.843Z,1008.82
2018-08-07T03:43:43.629Z,1008.85
2018-08-07T03:44:24.380Z,1008.83
2018-08-07T03:45:05.194Z,1008.84
2018-08-07T03:45:45.994Z,1008.84
2018-08-07T03:46:26.829Z,1008.83
2018-08-07T03:47:07.622Z,1008.87
2018-08-07T03:47:48.355Z,1008.83
2018-08-07T03:48:29.213Z,1008.85
2018-08-07T03:49:10.017Z,1008.84
2018-08-07T03:49:50.716Z,1008.84
2018-08-07T03:50:31.532Z,1008.82
2018-08-07T03:51:12.229Z,1008.82
2018-08-07T03:51:53.110Z,1008.79
2018-08-07T03:52:33.894Z,1008.79
2018-08-07T03:53:14.641Z,1008.8
2018-08-07T03:53:55.475Z,1008.81
2018-08-07T03:54:36.297Z,1008.81
2018-08-07T03:55:17.087Z,1008.82
2018-08-07T03:55:57.854Z,1008.81
2018-08-07T03:56:38.606Z,1008.83
2018-08-07T03:57:19.348Z,1008.82
2018-08-07T03:58:00.183Z,1008.82
2018-08-07T03:58:40.954Z,1008.79
2018-08-07T03:59:21.789Z,1008.81
2018-08-07T04:00:02.577Z,1008.76
2018-08-07T04:00:43.299Z,1008.8
2018-08-07T04:01:24.109Z,1008.82
2018-08-07T04:02:04.900Z,1008.8
2018-08-07T04:02:45.632Z,1008.79
2018-08-07T04:03:26.359Z,1008.8
2018-08-07T04:04:07.095Z,1008.79
2018-08-07T04:04:47.959Z,1008.81
2018-08-07T04:05:28.742Z,1008.8
2018-08-07T04:06:09.555Z,1008.8
2018-08-07T04:06:50.364Z,1008.8
2018-08-07T04:07:31.069Z,1008.83
2018-08-07T04:08:11.825Z,1008.81
2018-08-07T04:08:52.581Z,1008.78
2018-08-07T04:09:33.431Z,1008.81
2018-08-07T04:10:14.201Z,1008.81
2018-08-07T04:10:54.923Z,1008.78
2018-08-07T04:11:35.740Z,1008.79
2018-08-07T04:12:16.536Z,1008.79
2018-08-07T04:12:57.352Z,1008.8
2018-08-07T04:13:38.083Z,1008.82
2018-08-07T04:14:18.798Z,1008.8
2018-08-07T04:14:59.581Z,1008.79
2018-08-07T04:15:40.361Z,1008.78
2018-08-07T04:16:21.194Z,1008.81
2018-08-07T04:17:01.976Z,1008.8
2018-08-07T04:17:42.790Z,1008.76
2018-08-07T04:18:23.537Z,1008.77
2018-08-07T04:19:04.331Z,1008.76
2018-08-07T04:19:45.155Z,1008.76
2018-08-07T04:20:25.880Z,1008.76
2018-08-07T04:21:06.644Z,1008.71
2018-08-07T04:21:47.396Z,1008.71
2018-08-07T04:22:28.192Z,1008.73
2018-08-07T04:23:08.965Z,1008.7
2018-08-07T04:23:49.732Z,1008.7
2018-08-07T04:24:30.545Z,1008.69
2018-08-07T04:25:11.418Z,1008.68
2018-08-07T04:25:52.293Z,1008.64
2018-08-07T04:26:33.059Z,1008.65
2018-08-07T04:27:13.828Z,1008.61
2018-08-07T04:27:54.643Z,1008.66
2018-08-07T04:28:35.424Z,1008.63
2018-08-07T04:29:16.195Z,1008.64
2018-08-07T04:29:56.927Z,1008.67
2018-08-07T04:30:37.704Z,1008.68
2018-08-07T04:31:18.506Z,1008.66
2018-08-07T04:31:59.324Z,1008.68
2018-08-07T04:32:40.140Z,1008.68
2018-08-07T04:33:20.889Z,1008.67
2018-08-07T04:34:01.627Z,1008.65
2018-08-07T04:34:42.351Z,1008.63
2018-08-07T04:35:23.152Z,1008.64
2018-08-07T04:36:03.987Z,1008.63
2018-08-07T04:36:44.693Z,1008.63
2018-08-07T04:37:25.489Z,1008.64
2018-08-07T04:38:06.295Z,1008.66
2018-08-07T04:38:47.081Z,1008.67
2018-08-07T04:39:27.913Z,1008.65
2018-08-07T04:40:08.620Z,1008.68
2018-08-07T04:40:49.372Z,1008.67
2018-08-07T04:41:30.129Z,1008.62
2018-08-07T04:42:10.977Z,1008.6
2018-08-07T04:42:51.802Z,1008.65
2018-08-07T04:43:32.638Z,1008.64
2018-08-07T04:44:13.374Z,1008.6
2018-08-07T04:44:54.173Z,1008.6
2018-08-07T04:45:35.021Z,1008.62
2018-08-07T04:46:15.710Z,1008.63
2018-08-07T04:46:56.460Z,1008.62
2018-08-07T04:47:37.246Z,1008.61
2018-08-07T04:48:18.026Z,1008.58
2018-08-07T04:48:58.928Z,1008.6
2018-08-07T04:49:39.727Z,1008.55
2018-08-07T04:50:20.575Z,1008.58
2018-08-07T04:51:01.354Z,1008.57
2018-08-07T04:51:42.182Z,1008.55
2018-08-07T04:52:22.909Z,1008.58
2018-08-07T04:53:03.713Z,1008.56
2018-08-07T04:53:44.493Z,1008.57
2018-08-07T04:54:25.286Z,1008.62
2018-08-07T04:55:06.071Z,1008.58
2018-08-07T04:55:46.953Z,1008.65
2018-08-07T04:56:27.745Z,1008.71
2018-08-07T04:57:08.454Z,1008.71
2018-08-07T04:57:49.213Z,1008.73
2018-08-07T04:58:30.049Z,1008.79
2018-08-07T04:59:10.849Z,1008.77
2018-08-07T04:59:51.566Z,1008.78
2018-08-07T05:00:32.274Z,1008.81
2018-08-07T05:01:13.037Z,1008.82
2018-08-07T05:01:53.877Z,1008.81
2018-08-07T05:02:34.591Z,1008.83
2018-08-07T05:03:15.359Z,1008.76
2018-08-07T05:03:56.221Z,1008.78
2018-08-07T05:04:37.084Z,1008.77
2018-08-07T05:05:17.918Z,1008.8
2018-08-07T05:05:58.677Z,1008.78
2018-08-07T05:06:39.406Z,1008.79
2018-08-07T05:07:20.134Z,1008.82
2018-08-07T05:08:00.935Z,1008.82
2018-08-07T05:08:41.776Z,1008.82
2018-08-07T05:09:22.600Z,1008.78
2018-08-07T05:10:03.371Z,1008.8
2018-08-07T05:10:44.161Z,1008.81
2018-08-07T05:11:24.977Z,1008.8
2018-08-07T05:12:05.759Z,1008.81
2018-08-07T05:12:46.509Z,1008.8
2018-08-07T05:13:27.291Z,1008.82
2018-08-07T05:14:08.105Z,1008.79
2018-08-07T05:14:48.878Z,1008.77
2018-08-07T05:15:29.614Z,1008.8
2018-08-07T05:16:10.374Z,1008.75
2018-08-07T05:16:51.191Z,1008.75
2018-08-07T05:17:32.013Z,1008.77
2018-08-07T05:18:12.817Z,1008.74
2018-08-07T05:18:53.561Z,1008.77
2018-08-07T05:19:34.295Z,1008.75
2018-08-07T05:20:15.138Z,1008.74
2018-08-07T05:20:56.218Z,1008.75
2018-08-07T05:21:37.021Z,1008.73
2018-08-07T05:22:17.791Z,1008.73
2018-08-07T05:22:58.572Z,1008.7
2018-08-07T05:23:39.408Z,1008.71
2018-08-07T05:24:20.258Z,1008.74
2018-08-07T05:25:01.034Z,1008.69
2018-08-07T05:25:41.791Z,1008.7
2018-08-07T05:26:22.527Z,1008.72
2018-08-07T05:27:03.349Z,1008.74
2018-08-07T05:27:44.182Z,1008.74
2018-08-07T05:28:24.955Z,1008.76
2018-08-07T05:29:05.733Z,1008.76
2018-08-07T05:29:46.610Z,1008.74
2018-08-07T05:30:27.392Z,1008.76
2018-08-07T05:31:08.246Z,1008.76
2018-08-07T05:31:49.009Z,1008.74
2018-08-07T05:32:29.842Z,1008.74
2018-08-07T05:33:10.685Z,1008.75
2018-08-07T05:33:51.476Z,1008.75
2018-08-07T05:34:32.198Z,1008.74
2018-08-07T05:35:12.995Z,1008.76
2018-08-07T05:35:53.822Z,1008.76
2018-08-07T05:36:34.608Z,1008.73
2018-08-07T05:37:15.632Z,1008.75
2018-08-07T05:37:56.471Z,1008.79
2018-08-07T05:38:37.303Z,1008.8
2018-08-07T05:39:18.084Z,1008.79
2018-08-07T05:39:58.980Z,1008.81
2018-08-07T05:40:39.794Z,1008.83
2018-08-07T05:41:20.453Z,1008.82
2018-08-07T05:42:01.235Z,1008.81
2018-08-07T05:42:42.094Z,1008.84
2018-08-07T05:43:22.892Z,1008.81
2018-08-07T05:44:03.764Z,1008.87
2018-08-07T05:44:44.501Z,1008.85
2018-08-07T05:45:25.243Z,1008.85
2018-08-07T05:46:06.110Z,1008.9
2018-08-07T05:46:46.872Z,1008.88
2018-08-07T05:47:27.651Z,1008.9
2018-08-07T05:48:08.401Z,1008.89
2018-08-07T05:48:49.146Z,1008.85
2018-08-07T05:49:30.054Z,1008.9
2018-08-07T05:50:11.044Z,1008.91
2018-08-07T05:50:52.032Z,1008.91
2018-08-07T05:51:32.458Z,1008.86
2018-08-07T05:52:13.179Z,1008.87
2018-08-07T05:52:53.966Z,1008.87
2018-08-07T05:53:34.768Z,1008.9
2018-08-07T05:54:15.599Z,1008.89
2018-08-07T05:54:56.387Z,1008.9
2018-08-07T05:55:37.155Z,1008.92
2018-08-07T05:56:17.959Z,1008.92
2018-08-07T05:56:58.768Z,1008.95
2018-08-07T05:57:39.537Z,1008.97
2018-08-07T05:58:20.335Z,1008.95
2018-08-07T05:59:01.046Z,1008.96
2018-08-07T05:59:41.763Z,1008.95
2018-08-07T06:00:22.595Z,1008.97
2018-08-07T06:01:03.349Z,1008.99
2018-08-07T06:01:44.179Z,1009.01
2018-08-07T06:02:24.921Z,1009.02
2018-08-07T06:03:05.714Z,1008.98
2018-08-07T06:03:46.547Z,1009
2018-08-07T06:04:27.237Z,1008.99
2018-08-07T06:05:07.975Z,1008.99
2018-08-07T06:05:48.749Z,1009.03
2018-08-07T06:06:29.600Z,1008.99
2018-08-07T06:07:10.516Z,1009.04
2018-08-07T06:07:51.273Z,1009.02
2018-08-07T06:08:32.061Z,1009.03
2018-08-07T06:09:12.877Z,1009.02
2018-08-07T06:09:53.653Z,1009.04
2018-08-07T06:10:34.460Z,1009.04
2018-08-07T06:11:15.210Z,1009.03
2018-08-07T06:11:55.998Z,1009.03
2018-08-07T06:12:36.825Z,1009.05
2018-08-07T06:13:17.553Z,1008.97
2018-08-07T06:13:58.302Z,1009.03
2018-08-07T06:14:39.080Z,1009.01
2018-08-07T06:15:19.901Z,1009.04
2018-08-07T06:16:00.779Z,1009
2018-08-07T06:16:41.605Z,1008.98
2018-08-07T06:17:22.360Z,1008.99
2018-08-07T06:18:03.101Z,1008.99
2018-08-07T06:18:43.858Z,1009
2018-08-07T06:19:24.614Z,1008.98
2018-08-07T06:20:05.416Z,1009.01
2018-08-07T06:20:46.119Z,1008.99
2018-08-07T06:21:26.899Z,1008.98
2018-08-07T06:22:07.733Z,1009.01
2018-08-07T06:22:48.525Z,1008.99
2018-08-07T06:23:29.333Z,1009
2018-08-07T06:24:10.095Z,1008.97
2018-08-07T06:24:50.852Z,1008.96
2018-08-07T06:25:31.709Z,1009
2018-08-07T06:26:12.406Z,1009
2018-08-07T06:26:53.115Z,1008.97
2018-08-07T06:27:33.874Z,1009.02
2018-08-07T06:28:14.613Z,1009.03
2018-08-07T06:28:55.464Z,1009.05
2018-08-07T06:29:36.248Z,1009.03
2018-08-07T06:30:16.984Z,1009
2018-08-07T06:30:57.782Z,1009.04
2018-08-07T06:31:38.594Z,1009.07
2018-08-07T06:32:19.407Z,1009.1
2018-08-07T06:33:00.136Z,1009.11
2018-08-07T06:33:40.951Z,1009.07
2018-08-07T06:34:21.696Z,1009.11
2018-08-07T06:35:02.555Z,1009.1
2018-08-07T06:35:43.375Z,1009.08
2018-08-07T06:36:24.257Z,1009.13
2018-08-07T06:37:04.987Z,1009.04
2018-08-07T06:37:45.784Z,1009.08
2018-08-07T06:38:26.584Z,1009.11
2018-08-07T06:39:07.410Z,1009.09
2018-08-07T06:39:48.116Z,1009.05
2018-08-07T06:40:28.850Z,1009.04
2018-08-07T06:41:09.662Z,1009.09
2018-08-07T06:41:50.449Z,1009.13
2018-08-07T06:42:31.166Z,1009.11
2018-08-07T06:43:11.909Z,1009.11
2018-08-07T06:43:52.752Z,1009.12
2018-08-07T06:44:33.579Z,1009.12
2018-08-07T06:45:14.406Z,1009.11
2018-08-07T06:45:55.107Z,1009.13
2018-08-07T06:46:35.931Z,1009.11
2018-08-07T06:47:16.843Z,1009.15
2018-08-07T06:47:57.608Z,1009.13
2018-08-07T06:48:38.399Z,1009.16
2018-08-07T06:49:19.137Z,1009.18
2018-08-07T06:50:00.006Z,1009.18
2018-08-07T06:50:40.786Z,1009.2
2018-08-07T06:51:21.604Z,1009.22
2018-08-07T06:52:02.403Z,1009.21
2018-08-07T06:52:43.135Z,1009.22
2018-08-07T06:53:23.908Z,1009.22
2018-08-07T06:54:04.626Z,1009.22
2018-08-07T06:54:45.471Z,1009.23
2018-08-07T06:55:26.195Z,1009.25
2018-08-07T06:56:06.936Z,1009.28
2018-08-07T06:56:47.729Z,1009.25
2018-08-07T06:57:28.551Z,1009.26
2018-08-07T06:58:09.396Z,1009.26
2018-08-07T06:58:50.121Z,1009.23
2018-08-07T06:59:30.842Z,1009.28
2018-08-07T07:00:11.605Z,1009.25
2018-08-07T07:00:52.400Z,1009.28
2018-08-07T07:01:33.239Z,1009.26
2018-08-07T07:02:14.172Z,1009.32
2018-08-07T07:02:54.939Z,1009.29
2018-08-07T07:03:35.683Z,1009.28
2018-08-07T07:04:16.484Z,1009.31
2018-08-07T07:04:57.273Z,1009.31
2018-08-07T07:05:38.021Z,1009.36
2018-08-07T07:06:18.893Z,1009.34
2018-08-07T07:06:59.624Z,1009.33
2018-08-07T07:07:40.531Z,1009.32
2018-08-07T07:08:21.411Z,1009.35
2018-08-07T07:09:02.242Z,1009.31
2018-08-07T07:09:43.046Z,1009.33
2018-08-07T07:10:23.809Z,1009.33
2018-08-07T07:11:04.545Z,1009.31
2018-08-07T07:11:45.332Z,1009.28
2018-08-07T07:12:26.113Z,1009.32
2018-08-07T07:13:06.834Z,1009.32
2018-08-07T07:13:47.626Z,1009.35
2018-08-07T07:14:28.483Z,1009.32
2018-08-07T07:15:09.363Z,1009.34
2018-08-07T07:15:50.137Z,1009.33
2018-08-07T07:16:30.850Z,1009.35
2018-08-07T07:17:11.634Z,1009.36
2018-08-07T07:17:52.428Z,1009.37
2018-08-07T07:18:33.166Z,1009.35
2018-08-07T07:19:13.893Z,1009.31
2018-08-07T07:19:54.627Z,1009.35
2018-08-07T07:20:35.495Z,1009.34
2018-08-07T07:21:16.248Z,1009.34
2018-08-07T07:21:57.016Z,1009.34
2018-08-07T07:22:37.850Z,1009.32
2018-08-07T07:23:18.689Z,1009.34
2018-08-07T07:23:59.556Z,1009.35
2018-08-07T07:24:40.315Z,1009.35
2018-08-07T07:25:21.102Z,1009.35
2018-08-07T07:26:01.892Z,1009.33
2018-08-07T07:26:42.694Z,1009.35
2018-08-07T07:27:23.555Z,1009.34
2018-08-07T07:28:04.423Z,1009.35
2018-08-07T07:28:45.227Z,1009.38
2018-08-07T07:29:25.912Z,1009.38
2018-08-07T07:30:06.701Z,1009.34
2018-08-07T07:30:47.581Z,1009.36
2018-08-07T07:31:28.311Z,1009.37
2018-08-07T07:32:09.030Z,1009.36
2018-08-07T07:32:49.746Z,1009.37
2018-08-07T07:33:30.541Z,1009.34
2018-08-07T07:34:11.391Z,1009.33
2018-08-07T07:34:52.105Z,1009.42
2018-08-07T07:35:32.936Z,1009.34
2018-08-07T07:36:13.737Z,1009.34
2018-08-07T07:36:54.572Z,1009.39
2018-08-07T07:37:35.343Z,1009.39
2018-08-07T07:38:16.072Z,1009.39
2018-08-07T07:38:56.924Z,1009.38
2018-08-07T07:39:37.724Z,1009.38
2018-08-07T07:40:18.469Z,1009.34
2018-08-07T07:40:59.256Z,1009.34
2018-08-07T07:41:40.014Z,1009.36
2018-08-07T07:42:20.835Z,1009.32
2018-08-07T07:43:01.637Z,1009.36
2018-08-07T07:43:42.458Z,1009.37
2018-08-07T07:44:23.284Z,1009.39
2018-08-07T07:45:04.032Z,1009.38
2018-08-07T07:45:44.776Z,1009.39
2018-08-07T07:46:25.596Z,1009.37
2018-08-07T07:47:06.499Z,1009.39
2018-08-07T07:47:47.202Z,1009.36
2018-08-07T07:48:28.508Z,1009.42
2018-08-07T07:49:09.328Z,1009.44
2018-08-07T07:49:50.145Z,1009.39
2018-08-07T07:50:30.928Z,1009.4
2018-08-07T07:51:11.658Z,1009.38
2018-08-07T07:51:52.525Z,1009.4
2018-08-07T07:52:33.289Z,1009.39
2018-08-07T07:53:14.171Z,1009.4
2018-08-07T07:53:54.977Z,1009.41
2018-08-07T07:54:35.668Z,1009.47
2018-08-07T07:55:16.471Z,1009.46
2018-08-07T07:55:57.275Z,1009.43
2018-08-07T07:56:38.018Z,1009.42
2018-08-07T07:57:18.823Z,1009.41
2018-08-07T07:57:59.653Z,1009.43
2018-08-07T07:58:40.529Z,1009.41
2018-08-07T07:59:21.350Z,1009.44
2018-08-07T08:00:02.073Z,1009.45
2018-08-07T08:00:42.813Z,1009.45
2018-08-07T08:01:23.535Z,1009.46
2018-08-07T08:02:04.367Z,1009.42
2018-08-07T08:02:45.241Z,1009.49
2018-08-07T08:03:26.050Z,1009.51
2018-08-07T08:04:06.813Z,1009.46
2018-08-07T08:04:47.589Z,1009.48
2018-08-07T08:05:28.395Z,1009.52
2018-08-07T08:06:09.158Z,1009.48
2018-08-07T08:06:49.893Z,1009.48
2018-08-07T08:07:30.638Z,1009.52
2018-08-07T08:08:11.435Z,1009.48
2018-08-07T08:08:52.263Z,1009.5
2018-08-07T08:09:33.113Z,1009.49
2018-08-07T08:10:13.910Z,1009.49
2018-08-07T08:10:54.654Z,1009.51
2018-08-07T08:11:35.418Z,1009.48
2018-08-07T08:12:16.133Z,1009.44
2018-08-07T08:12:57.025Z,1009.45
2018-08-07T08:13:37.819Z,1009.45
2018-08-07T08:14:18.563Z,1009.45
2018-08-07T08:14:59.384Z,1009.43
2018-08-07T08:15:40.233Z,1009.45